Time;durP1;ratioP1;P1;durP2;ratioP2;P2;SDS_P1;SDS_P2;PMS_P1;PMS_P2;Temp;Humidity;BMP_temperature;BMP_pressure;BME280_temperature;BME280_humidity;BME280_pressure;Samples;Min_cycle;Max_cycle;Signal;HPM_P1;HPM_P2
2021/03/25 00:00:11;;;;;;;96.63;51.90;;;;;;;;;;5071830;28;39315;-76
2021/03/25 00:02:38;;;;;;;120.30;58.97;;;;;;;;;;5054938;28;37078;-76
2021/03/25 00:05:06;;;;;;;111.57;56.90;;;;;;;;;;5056232;28;37997;-76
2021/03/25 00:07:33;;;;;;;115.13;57.17;;;;;;;;;;5057072;27;39190;-76
2021/03/25 00:09:59;;;;;;;112.37;57.43;;;;;;;;;;5059567;28;38577;-77
2021/03/25 00:12:26;;;;;;;112.83;56.73;;;;;;;;;;5056616;28;37438;-76
2021/03/25 00:14:53;;;;;;;118.17;58.83;;;;;;;;;;5058629;28;37891;-76
2021/03/25 00:17:19;;;;;;;104.90;53.77;;;;;;;;;;5060618;28;38349;-76
2021/03/25 00:19:46;;;;;;;106.53;56.40;;;;;;;;;;5052356;28;37694;-76
2021/03/25 00:22:12;;;;;;;108.00;54.63;;;;;;;;;;5061133;28;38145;-76
2021/03/25 00:24:38;;;;;;;134.17;63.17;;;;;;;;;;5074343;28;38599;-76
2021/03/25 00:27:06;;;;;;;120.37;61.53;;;;;;;;;;5058505;28;37880;-76
2021/03/25 00:29:32;;;;;;;129.70;64.20;;;;;;;;;;5066273;28;39339;-77
2021/03/25 00:31:59;;;;;;;119.47;59.63;;;;;;;;;;5056659;28;37398;-77
2021/03/25 00:34:25;;;;;;;101.03;53.37;;;;;;;;;;5063787;28;40027;-77
2021/03/25 00:36:51;;;;;;;113.43;57.40;;;;;;;;;;5062563;28;39067;-74
2021/03/25 00:39:18;;;;;;;120.97;62.07;;;;;;;;;;5077967;28;38576;-77
2021/03/25 00:41:44;;;;;;;127.23;62.07;;;;;;;;;;5067193;28;37098;-76
2021/03/25 00:44:12;;;;;;;123.07;60.13;;;;;;;;;;5058892;28;37938;-76
2021/03/25 00:46:38;;;;;;;109.73;57.60;;;;;;;;;;5064824;28;37900;-76
2021/03/25 00:49:05;;;;;;;128.13;62.80;;;;;;;;;;5058066;27;38451;-76
2021/03/25 00:51:32;;;;;;;131.67;63.43;;;;;;;;;;5065510;28;38207;-77
2021/03/25 00:53:58;;;;;;;124.03;62.00;;;;;;;;;;5059673;28;39126;-76
2021/03/25 00:56:25;;;;;;;145.10;65.17;;;;;;;;;;5065627;28;39737;-76
2021/03/25 00:58:51;;;;;;;119.93;60.07;;;;;;;;;;5063027;28;40478;-76
2021/03/25 01:01:18;;;;;;;144.57;67.80;;;;;;;;;;5077774;28;37433;-76
2021/03/25 01:03:44;;;;;;;130.30;66.07;;;;;;;;;;5064633;28;40678;-77
2021/03/25 01:06:10;;;;;;;166.63;76.27;;;;;;;;;;5062323;28;38586;-76
2021/03/25 01:08:37;;;;;;;159.33;73.77;;;;;;;;;;5064594;28;39316;-77
2021/03/25 01:11:09;;;;;;;129.30;65.57;;;;;;;;;;5064640;28;36167;-76
2021/03/25 01:13:40;;;;;;;132.88;65.30;;;;;;;;;;5063985;28;39413;-77
2021/03/25 01:16:08;;;;;;;142.80;69.77;;;;;;;;;;5062597;28;39391;-77
2021/03/25 01:18:35;;;;;;;120.77;60.60;;;;;;;;;;5072471;28;37637;-77
2021/03/25 01:21:01;;;;;;;140.37;65.23;;;;;;;;;;5059919;28;37118;-76
2021/03/25 01:23:28;;;;;;;129.17;62.73;;;;;;;;;;5059667;28;38213;-76
2021/03/25 01:25:54;;;;;;;120.93;60.20;;;;;;;;;;5079732;28;38900;-76
2021/03/25 01:28:20;;;;;;;118.93;58.70;;;;;;;;;;5061389;28;38684;-76
2021/03/25 01:30:47;;;;;;;121.03;60.97;;;;;;;;;;5063802;28;38168;-76
2021/03/25 01:33:15;;;;;;;137.33;66.33;;;;;;;;;;5060236;28;38617;-76
2021/03/25 01:35:42;;;;;;;151.10;69.33;;;;;;;;;;5064088;28;38671;-76
2021/03/25 01:38:10;;;;;;;140.53;64.90;;;;;;;;;;5061713;28;38403;-76
2021/03/25 01:40:41;;;;;;;135.90;66.17;;;;;;;;;;5061829;28;37520;-76
2021/03/25 01:43:10;;;;;;;121.83;63.77;;;;;;;;;;5059933;28;38577;-76
2021/03/25 01:45:39;;;;;;;150.07;68.30;;;;;;;;;;5064531;28;39302;-76
2021/03/25 01:48:06;;;;;;;121.43;62.00;;;;;;;;;;5074354;28;38896;-77
2021/03/25 01:50:32;;;;;;;123.70;61.47;;;;;;;;;;5064022;28;34263;-76
2021/03/25 01:53:02;;;;;;;118.00;59.03;;;;;;;;;;5062273;28;39243;-76
2021/03/25 01:55:28;;;;;;;128.37;62.20;;;;;;;;;;5079708;28;47467;-77
2021/03/25 01:58:02;;;;;;;168.63;73.23;;;;;;;;;;5063344;28;38946;-76
2021/03/25 02:00:33;;;;;;;121.60;60.57;;;;;;;;;;5067928;28;48605;-76
2021/03/25 02:03:15;;;;;;;140.33;66.20;;;;;;;;;;5059684;28;37924;-75
2021/03/25 02:06:00;;;;;;;126.47;62.20;;;;;;;;;;5066715;28;49056;-76
2021/03/25 02:08:42;;;;;;;151.83;70.87;;;;;;;;;;5059824;28;37456;-75
2021/03/25 02:11:24;;;;;;;127.47;64.30;;;;;;;;;;5070087;28;37329;-76
2021/03/25 02:14:09;;;;;;;129.43;62.03;;;;;;;;;;5072404;28;38298;-76
2021/03/25 02:16:38;;;;;;;110.03;57.30;;;;;;;;;;5060344;28;48480;-76
2021/03/25 02:19:30;;;;;;;122.67;59.53;;;;;;;;;;5064908;28;38645;-76
2021/03/25 02:22:09;;;;;;;133.07;64.05;;;;;;;;;;5049235;28;36173;-76
2021/03/25 02:24:54;;;;;;;118.00;58.90;;;;;;;;;;5071692;28;47651;-76
2021/03/25 02:27:20;;;;;;;126.23;61.30;;;;;;;;;;5062309;28;39651;-76
2021/03/25 02:29:59;;;;;;;113.23;57.77;;;;;;;;;;5064877;28;37375;-76
2021/03/25 02:32:34;;;;;;;138.40;61.93;;;;;;;;;;5067124;28;37598;-76
2021/03/25 02:35:12;;;;;;;155.00;67.50;;;;;;;;;;5060674;28;39215;-76
2021/03/25 02:37:41;;;;;;;147.83;64.97;;;;;;;;;;5059259;28;46518;-76
2021/03/25 02:40:07;;;;;;;159.43;66.93;;;;;;;;;;5070639;28;40100;-76
2021/03/25 02:42:37;;;;;;;148.67;66.37;;;;;;;;;;5064341;28;35856;-76
2021/03/25 02:45:07;;;;;;;128.47;62.03;;;;;;;;;;5064194;28;37471;-76
2021/03/25 02:47:35;;;;;;;159.20;68.57;;;;;;;;;;5058127;28;38803;-76
2021/03/25 02:50:06;;;;;;;117.57;57.73;;;;;;;;;;5073049;28;38503;-76
2021/03/25 02:52:39;;;;;;;157.67;65.40;;;;;;;;;;5056967;28;48898;-76
2021/03/25 02:55:08;;;;;;;130.27;62.22;;;;;;;;;;5056185;28;39275;-76
2021/03/25 02:57:43;;;;;;;115.80;57.50;;;;;;;;;;5075449;28;37793;-76
2021/03/25 03:00:12;;;;;;;159.40;66.47;;;;;;;;;;5059834;28;41200;-76
2021/03/25 03:02:44;;;;;;;136.73;59.83;;;;;;;;;;5065624;28;37184;-76
2021/03/25 03:05:16;;;;;;;236.83;82.97;;;;;;;;;;5061856;28;37972;-76
2021/03/25 03:07:51;;;;;;;122.60;63.90;;;;;;;;;;5064379;28;39243;-76
2021/03/25 03:10:22;;;;;;;168.50;69.10;;;;;;;;;;5057252;28;38987;-76
2021/03/25 03:12:49;;;;;;;122.63;61.03;;;;;;;;;;5084078;28;36326;-76
2021/03/25 03:15:20;;;;;;;121.93;61.43;;;;;;;;;;5062865;28;39025;-76
2021/03/25 03:17:56;;;;;;;134.67;64.83;;;;;;;;;;5063678;28;37754;-76
2021/03/25 03:20:24;;;;;;;159.23;67.90;;;;;;;;;;5061090;28;37850;-76
2021/03/25 03:22:53;;;;;;;175.93;70.73;;;;;;;;;;5061941;28;37588;-77
2021/03/25 03:25:23;;;;;;;126.53;61.83;;;;;;;;;;5076296;28;39460;-76
2021/03/25 03:28:02;;;;;;;145.67;64.20;;;;;;;;;;5066528;28;38633;-76
2021/03/25 03:30:32;;;;;;;119.63;58.20;;;;;;;;;;5078855;28;46937;-76
2021/03/25 03:33:05;;;;;;;125.70;60.80;;;;;;;;;;5058630;28;37139;-76
2021/03/25 03:35:43;;;;;;;116.37;58.83;;;;;;;;;;5066057;28;48858;-75
2021/03/25 03:38:15;;;;;;;145.70;65.07;;;;;;;;;;5079731;28;37717;-76
2021/03/25 03:40:43;;;;;;;134.63;61.58;;;;;;;;;;5064354;28;38309;-76
2021/03/25 03:43:14;;;;;;;148.47;64.60;;;;;;;;;;5067053;27;37024;-77
2021/03/25 03:45:46;;;;;;;175.53;73.73;;;;;;;;;;5065280;28;38907;-77
2021/03/25 03:48:17;;;;;;;149.67;67.67;;;;;;;;;;5061656;28;38673;-76
2021/03/25 03:50:46;;;;;;;115.97;59.37;;;;;;;;;;5066759;28;39230;-77
2021/03/25 03:53:12;;;;;;;116.13;57.77;;;;;;;;;;5066764;28;36757;-76
2021/03/25 03:55:39;;;;;;;110.60;56.63;;;;;;;;;;5065679;28;39114;-76
2021/03/25 03:58:11;;;;;;;125.53;61.10;;;;;;;;;;5068919;28;39883;-77
2021/03/25 04:00:58;;;;;;;116.88;58.35;;;;;;;;;;5061150;28;38112;-77
2021/03/25 04:03:39;;;;;;;121.37;60.27;;;;;;;;;;5059718;28;37104;-76
2021/03/25 04:06:07;;;;;;;110.40;54.37;;;;;;;;;;5073516;28;38314;-77
2021/03/25 04:08:43;;;;;;;113.43;56.87;;;;;;;;;;5062134;28;38763;-76
2021/03/25 04:11:42;;;;;;;109.13;56.67;;;;;;;;;;5077304;28;37586;-77
2021/03/25 04:14:26;;;;;;;113.43;57.77;;;;;;;;;;5036826;28;36991;-77
2021/03/25 04:16:55;;;;;;;165.57;69.13;;;;;;;;;;5062599;28;39029;-76
2021/03/25 04:19:28;;;;;;;118.37;57.07;;;;;;;;;;5060798;28;38946;-77
2021/03/25 04:22:05;;;;;;;126.55;61.92;;;;;;;;;;5074376;28;38516;-77
2021/03/25 04:24:34;;;;;;;140.60;65.97;;;;;;;;;;5060473;28;47040;-76
2021/03/25 04:27:06;;;;;;;124.93;59.60;;;;;;;;;;5071717;28;39798;-76
2021/03/25 04:29:59;;;;;;;104.68;53.45;;;;;;;;;;5063544;28;48782;-76
2021/03/25 04:32:25;;;;;;;100.63;53.47;;;;;;;;;;5054524;28;38611;-76
2021/03/25 04:34:52;;;;;;;100.63;53.17;;;;;;;;;;5056233;28;36794;-77
2021/03/25 04:37:19;;;;;;;127.63;64.97;;;;;;;;;;5065395;28;40462;-76
2021/03/25 04:39:46;;;;;;;114.23;57.10;;;;;;;;;;5071001;28;40362;-76
2021/03/25 04:42:13;;;;;;;103.53;52.50;;;;;;;;;;5060881;28;38693;-76
2021/03/25 04:44:47;;;;;;;93.17;51.93;;;;;;;;;;5062466;28;37463;-76
2021/03/25 04:47:17;;;;;;;136.73;63.30;;;;;;;;;;5062966;27;40520;-76
2021/03/25 04:49:46;;;;;;;113.13;58.33;;;;;;;;;;5060401;28;39061;-76
2021/03/25 04:52:26;;;;;;;116.97;57.80;;;;;;;;;;5063231;28;37496;-76
2021/03/25 04:54:52;;;;;;;140.40;67.83;;;;;;;;;;5058153;28;35741;-77
2021/03/25 04:57:19;;;;;;;148.40;64.57;;;;;;;;;;5060534;28;37414;-77
2021/03/25 04:59:45;;;;;;;156.03;68.13;;;;;;;;;;5062963;28;37950;-77
2021/03/25 05:02:12;;;;;;;94.63;50.73;;;;;;;;;;5062571;28;37602;-77
2021/03/25 05:04:43;;;;;;;87.80;50.23;;;;;;;;;;5064228;28;34668;-77
2021/03/25 05:07:13;;;;;;;83.60;47.60;;;;;;;;;;5054691;28;38891;-76
2021/03/25 05:09:39;;;;;;;80.50;45.00;;;;;;;;;;5059971;28;37446;-77
2021/03/25 05:12:06;;;;;;;84.17;45.90;;;;;;;;;;5052289;28;37487;-77
2021/03/25 05:14:33;;;;;;;86.70;48.23;;;;;;;;;;5059533;28;36025;-76
2021/03/25 05:17:06;;;;;;;99.33;51.10;;;;;;;;;;5060171;28;39635;-77
2021/03/25 05:19:39;;;;;;;91.70;49.77;;;;;;;;;;5056441;28;48074;-76
2021/03/25 05:22:06;;;;;;;99.77;52.17;;;;;;;;;;5056864;28;38985;-77
2021/03/25 05:24:44;;;;;;;99.73;52.73;;;;;;;;;;5074091;28;36141;-77
2021/03/25 05:27:34;;;;;;;93.73;48.97;;;;;;;;;;5074996;28;38738;-76
2021/03/25 05:30:01;;;;;;;95.57;51.80;;;;;;;;;;5048750;28;38069;-77
2021/03/25 05:32:32;;;;;;;77.97;43.37;;;;;;;;;;5057097;28;48940;-77
2021/03/25 05:35:00;;;;;;;91.93;50.43;;;;;;;;;;5075630;28;37192;-76
2021/03/25 05:37:27;;;;;;;84.80;45.87;;;;;;;;;;5056569;28;37300;-76
2021/03/25 05:39:54;;;;;;;91.03;48.77;;;;;;;;;;5054878;28;39796;-77
2021/03/25 05:42:29;;;;;;;80.50;45.87;;;;;;;;;;5061127;27;39838;-76
2021/03/25 05:45:14;;;;;;;88.50;50.00;;;;;;;;;;5061030;28;37633;-76
2021/03/25 05:47:45;;;;;;;104.27;55.27;;;;;;;;;;5058965;28;48840;-76
2021/03/25 05:50:14;;;;;;;97.47;52.30;;;;;;;;;;5057504;28;38168;-76
2021/03/25 05:52:43;;;;;;;133.00;65.03;;;;;;;;;;5068881;28;37681;-76
2021/03/25 05:55:28;;;;;;;103.07;53.93;;;;;;;;;;5057692;28;36446;-76
2021/03/25 05:58:05;;;;;;;103.60;55.00;;;;;;;;;;5072255;28;39494;-76
2021/03/25 06:00:38;;;;;;;121.13;60.23;;;;;;;;;;5057685;28;49004;-76
2021/03/25 06:03:12;;;;;;;103.30;53.78;;;;;;;;;;5059133;28;37389;-76
2021/03/25 06:05:38;;;;;;;127.80;64.07;;;;;;;;;;5060719;28;37428;-76
2021/03/25 06:08:04;;;;;;;111.00;57.43;;;;;;;;;;5068363;28;39707;-76
2021/03/25 06:10:37;;;;;;;106.20;57.47;;;;;;;;;;5060961;28;39485;-76
2021/03/25 06:13:17;;;;;;;121.05;59.83;;;;;;;;;;5067159;28;38864;-76
2021/03/25 06:15:50;;;;;;;109.70;56.57;;;;;;;;;;5062830;28;37241;-76
2021/03/25 06:18:35;;;;;;;107.30;56.92;;;;;;;;;;5075876;28;37778;-76
2021/03/25 06:21:26;;;;;;;101.80;57.10;;;;;;;;;;5064746;28;37377;-76
2021/03/25 06:24:12;;;;;;;124.90;63.67;;;;;;;;;;5060432;28;48975;-77
2021/03/25 06:26:57;;;;;;;99.13;55.50;;;;;;;;;;5066342;28;48025;-75
2021/03/25 06:29:35;;;;;;;99.10;53.97;;;;;;;;;;5078985;28;39536;-77
2021/03/25 06:32:03;;;;;;;139.53;66.03;;;;;;;;;;5062455;27;38907;-77
2021/03/25 06:34:39;;;;;;;96.67;52.13;;;;;;;;;;5058622;28;38108;-77
2021/03/25 06:37:11;;;;;;;91.60;50.17;;;;;;;;;;5060696;28;38083;-77
2021/03/25 06:39:58;;;;;;;84.90;48.00;;;;;;;;;;5066551;28;37762;-77
2021/03/25 06:42:24;;;;;;;98.07;53.23;;;;;;;;;;5065460;28;40690;-78
2021/03/25 06:44:55;;;;;;;93.93;50.47;;;;;;;;;;5065742;28;37354;-78
2021/03/25 06:47:39;;;;;;;78.37;49.67;;;;;;;;;;5060641;28;37285;-78
2021/03/25 06:50:06;;;;;;;73.93;44.63;;;;;;;;;;5062898;28;39182;-78
2021/03/25 06:52:35;;;;;;;84.57;47.40;;;;;;;;;;5056914;28;38200;-78
2021/03/25 06:55:04;;;;;;;76.10;43.70;;;;;;;;;;5057619;28;38274;-77
2021/03/25 06:57:42;;;;;;;73.97;45.40;;;;;;;;;;5056558;28;48958;-78
2021/03/25 07:00:12;;;;;;;66.80;42.67;;;;;;;;;;5068563;28;38004;-77
2021/03/25 07:02:38;;;;;;;86.97;50.03;;;;;;;;;;5062214;28;40429;-78
2021/03/25 07:05:06;;;;;;;77.90;44.70;;;;;;;;;;5062872;28;37085;-75
2021/03/25 07:07:43;;;;;;;78.40;47.37;;;;;;;;;;5061335;28;37258;-77
2021/03/25 07:10:12;;;;;;;81.57;46.53;;;;;;;;;;5065814;27;39043;-75
2021/03/25 07:12:40;;;;;;;78.57;47.10;;;;;;;;;;5064286;28;37437;-78
2021/03/25 07:15:07;;;;;;;76.37;45.90;;;;;;;;;;5053915;28;40184;-76
2021/03/25 07:17:39;;;;;;;78.67;45.27;;;;;;;;;;5051032;28;36679;-76
2021/03/25 07:20:20;;;;;;;65.27;41.77;;;;;;;;;;5060993;28;38139;-76
2021/03/25 07:22:59;;;;;;;74.47;45.93;;;;;;;;;;5076248;28;37754;-76
2021/03/25 07:25:26;;;;;;;81.00;45.73;;;;;;;;;;5055625;28;37610;-75
2021/03/25 07:27:53;;;;;;;72.30;44.00;;;;;;;;;;5056824;28;36123;-76
2021/03/25 07:30:20;;;;;;;74.40;43.27;;;;;;;;;;5053325;28;37864;-75
2021/03/25 07:32:48;;;;;;;66.57;41.13;;;;;;;;;;5064484;28;38858;-76
2021/03/25 07:35:26;;;;;;;68.23;41.30;;;;;;;;;;5061418;28;36794;-77
2021/03/25 07:37:53;;;;;;;63.60;39.30;;;;;;;;;;5062582;28;36468;-77
2021/03/25 07:40:24;;;;;;;64.30;39.63;;;;;;;;;;5054296;28;39040;-76
2021/03/25 07:42:51;;;;;;;63.50;37.85;;;;;;;;;;5062184;28;39498;-77
2021/03/25 07:45:23;;;;;;;58.83;35.90;;;;;;;;;;5058765;28;37706;-76
2021/03/25 07:47:50;;;;;;;56.60;35.53;;;;;;;;;;5058847;28;37234;-78
2021/03/25 07:50:30;;;;;;;56.15;34.53;;;;;;;;;;5057413;28;37928;-77
2021/03/25 07:52:57;;;;;;;62.22;36.22;;;;;;;;;;5062362;28;38999;-76
2021/03/25 07:55:25;;;;;;;55.63;35.47;;;;;;;;;;5061332;28;38692;-76
2021/03/25 07:57:52;;;;;;;60.95;37.10;;;;;;;;;;5071568;28;36056;-76
2021/03/25 08:00:33;;;;;;;64.10;38.07;;;;;;;;;;5059033;28;38961;-77
2021/03/25 08:03:10;;;;;;;61.10;35.70;;;;;;;;;;5064582;28;39683;-74
2021/03/25 08:05:36;;;;;;;59.17;37.07;;;;;;;;;;5061039;28;47066;-75
2021/03/25 08:08:06;;;;;;;56.50;36.37;;;;;;;;;;5065648;28;37144;-76
2021/03/25 08:10:35;;;;;;;46.80;32.27;;;;;;;;;;5057254;28;38931;-77
2021/03/25 08:13:05;;;;;;;49.23;31.63;;;;;;;;;;5062375;28;40036;-77
2021/03/25 08:15:35;;;;;;;43.17;29.93;;;;;;;;;;5067238;28;37528;-77
2021/03/25 08:18:12;;;;;;;49.33;34.38;;;;;;;;;;5059017;28;36486;-77
2021/03/25 08:20:44;;;;;;;45.17;30.60;;;;;;;;;;5048012;28;46821;-77
2021/03/25 08:23:38;;;;;;;52.65;33.45;;;;;;;;;;5062983;28;37763;-76
2021/03/25 08:26:04;;;;;;;51.47;31.27;;;;;;;;;;5058806;28;38032;-77
2021/03/25 08:28:37;;;;;;;47.17;29.58;;;;;;;;;;5062351;28;37337;-77
2021/03/25 08:31:22;;;;;;;56.13;31.65;;;;;;;;;;5063948;28;38911;-77
2021/03/25 08:34:10;;;;;;;52.60;32.23;;;;;;;;;;5055477;28;39219;-77
2021/03/25 08:36:56;;;;;;;55.60;33.07;;;;;;;;;;5062649;28;47405;-77
2021/03/25 08:39:40;;;;;;;53.55;32.83;;;;;;;;;;5058851;28;35971;-77
2021/03/25 08:42:33;;;;;;;60.53;34.37;;;;;;;;;;5076283;28;39427;-76
2021/03/25 08:45:07;;;;;;;46.72;30.65;;;;;;;;;;5052320;28;39305;-76
2021/03/25 08:47:37;;;;;;;49.97;31.97;;;;;;;;;;5052465;28;47364;-75
2021/03/25 08:50:22;;;;;;;43.88;30.25;;;;;;;;;;5057902;28;35946;-77
2021/03/25 08:52:49;;;;;;;55.15;34.58;;;;;;;;;;5061373;28;38529;-76
2021/03/25 08:55:18;;;;;;;60.95;34.83;;;;;;;;;;5061484;28;37865;-76
2021/03/25 08:57:44;;;;;;;52.90;34.03;;;;;;;;;;5054142;28;38290;-76
2021/03/25 09:00:11;;;;;;;57.87;36.13;;;;;;;;;;5047742;28;36652;-76
2021/03/25 09:02:43;;;;;;;65.77;38.50;;;;;;;;;;5059091;28;37512;-75
2021/03/25 09:05:19;;;;;;;77.25;42.20;;;;;;;;;;5045767;28;39995;-75
2021/03/25 09:07:46;;;;;;;69.15;39.05;;;;;;;;;;5055519;28;38998;-76
2021/03/25 09:10:31;;;;;;;63.85;37.08;;;;;;;;;;5056070;28;35657;-76
2021/03/25 09:12:57;;;;;;;71.10;38.78;;;;;;;;;;5048486;28;39534;-75
2021/03/25 09:15:23;;;;;;;76.55;41.03;;;;;;;;;;5057568;28;38171;-75
2021/03/25 09:17:56;;;;;;;73.95;40.33;;;;;;;;;;5060624;28;38785;-75
2021/03/25 09:20:30;;;;;;;70.05;39.08;;;;;;;;;;5062697;28;37429;-75
2021/03/25 09:23:01;;;;;;;69.53;40.60;;;;;;;;;;5065434;28;37416;-76
2021/03/25 09:25:27;;;;;;;74.60;41.43;;;;;;;;;;5053490;28;48922;-76
2021/03/25 09:27:58;;;;;;;88.95;45.15;;;;;;;;;;5060204;28;37944;-77
2021/03/25 09:30:31;;;;;;;76.47;41.90;;;;;;;;;;5049626;28;37435;-76
2021/03/25 09:33:16;;;;;;;87.30;46.20;;;;;;;;;;5057464;28;39556;-76
2021/03/25 09:35:44;;;;;;;84.63;46.70;;;;;;;;;;5071384;28;47094;-77
2021/03/25 09:38:12;;;;;;;72.03;40.80;;;;;;;;;;5059866;28;38848;-77
2021/03/25 09:40:49;;;;;;;74.60;42.72;;;;;;;;;;5058610;28;36603;-77
2021/03/25 09:43:27;;;;;;;77.47;45.47;;;;;;;;;;5059489;28;38831;-77
2021/03/25 09:45:55;;;;;;;77.82;42.40;;;;;;;;;;5062131;28;39441;-77
2021/03/25 09:48:25;;;;;;;78.88;43.75;;;;;;;;;;5062207;28;37841;-76
2021/03/25 09:51:11;;;;;;;85.10;44.35;;;;;;;;;;5063671;28;39050;-76
2021/03/25 09:53:46;;;;;;;80.32;41.75;;;;;;;;;;5052441;28;47285;-76
2021/03/25 09:56:31;;;;;;;74.65;41.10;;;;;;;;;;5056623;28;39659;-77
2021/03/25 09:58:58;;;;;;;63.58;36.58;;;;;;;;;;5049419;28;38489;-77
2021/03/25 10:01:41;;;;;;;61.20;37.15;;;;;;;;;;5063447;28;36096;-77
2021/03/25 10:04:26;;;;;;;65.20;38.67;;;;;;;;;;5054860;28;39163;-77
2021/03/25 10:06:55;;;;;;;62.50;36.95;;;;;;;;;;5073672;28;38776;-77
2021/03/25 10:09:40;;;;;;;61.35;36.38;;;;;;;;;;5063752;28;39056;-77
2021/03/25 10:12:10;;;;;;;57.00;34.40;;;;;;;;;;5064297;28;38744;-77
2021/03/25 10:14:44;;;;;;;51.35;33.10;;;;;;;;;;5049703;28;38071;-77
2021/03/25 10:17:30;;;;;;;54.47;33.53;;;;;;;;;;5055021;27;39948;-77
2021/03/25 10:19:56;;;;;;;53.88;31.45;;;;;;;;;;5053480;28;38560;-77
2021/03/25 10:22:23;;;;;;;55.53;32.25;;;;;;;;;;5053139;28;37195;-76
2021/03/25 10:24:54;;;;;;;52.58;30.45;;;;;;;;;;5059602;28;37708;-76
2021/03/25 10:27:21;;;;;;;49.13;28.92;;;;;;;;;;5060739;28;39927;-76
2021/03/25 10:29:47;;;;;;;45.33;28.75;;;;;;;;;;5061020;28;38067;-77
2021/03/25 10:32:35;;;;;;;43.70;26.77;;;;;;;;;;5061738;28;37551;-78
2021/03/25 10:35:02;;;;;;;43.00;27.35;;;;;;;;;;5064309;28;39437;-76
2021/03/25 10:37:39;;;;;;;36.38;24.17;;;;;;;;;;5054032;28;47503;-77
2021/03/25 10:40:06;;;;;;;44.95;26.90;;;;;;;;;;5062928;28;37374;-76
2021/03/25 10:42:37;;;;;;;40.15;25.83;;;;;;;;;;5053226;28;37393;-75
2021/03/25 10:45:34;;;;;;;41.15;24.42;;;;;;;;;;5066800;28;42306;-77
2021/03/25 10:48:14;;;;;;;38.13;23.75;;;;;;;;;;5041332;28;40015;-76
2021/03/25 10:50:46;;;;;;;34.72;21.77;;;;;;;;;;5060690;28;49256;-76
2021/03/25 10:53:15;;;;;;;30.05;20.85;;;;;;;;;;5059879;28;36877;-76
2021/03/25 10:55:43;;;;;;;33.13;20.95;;;;;;;;;;5076526;28;37659;-77
2021/03/25 10:58:21;;;;;;;34.08;21.60;;;;;;;;;;5057592;28;39141;-75
2021/03/25 11:00:47;;;;;;;33.28;20.17;;;;;;;;;;5055558;28;38862;-79
2021/03/25 11:03:18;;;;;;;33.13;21.05;;;;;;;;;;5061347;28;37410;-77
2021/03/25 11:05:52;;;;;;;29.92;19.38;;;;;;;;;;5082068;28;36554;-77
2021/03/25 11:08:33;;;;;;;32.08;19.80;;;;;;;;;;5072920;28;39019;-76
2021/03/25 11:11:00;;;;;;;28.67;19.65;;;;;;;;;;5073525;28;37681;-77
2021/03/25 11:13:27;;;;;;;31.00;19.35;;;;;;;;;;5056951;28;37353;-79
2021/03/25 11:16:14;;;;;;;30.45;20.05;;;;;;;;;;5075027;28;37802;-80
2021/03/25 11:18:44;;;;;;;33.67;20.98;;;;;;;;;;5058872;28;46912;-78
2021/03/25 11:21:13;;;;;;;31.80;20.27;;;;;;;;;;5060751;28;37382;-78
2021/03/25 11:23:39;;;;;;;32.60;20.35;;;;;;;;;;5060051;28;37101;-78
2021/03/25 11:26:06;;;;;;;35.58;20.25;;;;;;;;;;5075522;28;37667;-77
2021/03/25 11:28:34;;;;;;;29.83;17.98;;;;;;;;;;5077671;28;38899;-78
2021/03/25 11:31:20;;;;;;;29.15;17.25;;;;;;;;;;5056819;28;37614;-78
2021/03/25 11:33:48;;;;;;;26.77;16.98;;;;;;;;;;5075175;28;46983;-78
2021/03/25 11:36:30;;;;;;;28.48;15.50;;;;;;;;;;5052806;28;39642;-78
2021/03/25 11:38:56;;;;;;;26.75;14.43;;;;;;;;;;5059154;28;37912;-77
2021/03/25 11:41:23;;;;;;;26.67;14.70;;;;;;;;;;5057221;28;39063;-78
2021/03/25 11:43:52;;;;;;;21.75;14.20;;;;;;;;;;5058350;28;36869;-78
2021/03/25 11:46:25;;;;;;;22.23;12.43;;;;;;;;;;5057473;28;37776;-77
2021/03/25 11:48:59;;;;;;;21.58;11.25;;;;;;;;;;5074738;28;38609;-78
2021/03/25 11:51:26;;;;;;;20.30;11.15;;;;;;;;;;5059235;28;38006;-77
2021/03/25 11:53:54;;;;;;;18.80;11.55;;;;;;;;;;5055457;28;36289;-78
2021/03/25 11:56:20;;;;;;;20.08;10.90;;;;;;;;;;5049878;28;38270;-78
2021/03/25 11:58:51;;;;;;;21.58;11.45;;;;;;;;;;5060054;28;38724;-78
2021/03/25 12:01:21;;;;;;;22.20;11.75;;;;;;;;;;5055907;28;38119;-78
2021/03/25 12:03:48;;;;;;;21.60;10.80;;;;;;;;;;5055613;28;35971;-77
2021/03/25 12:06:18;;;;;;;14.23;7.93;;;;;;;;;;5059162;28;39159;-78
2021/03/25 12:08:45;;;;;;;14.35;8.80;;;;;;;;;;5077036;28;37017;-78
2021/03/25 12:11:13;;;;;;;12.55;7.88;;;;;;;;;;5058702;28;37492;-78
2021/03/25 12:13:40;;;;;;;14.52;7.53;;;;;;;;;;5059531;28;36557;-78
2021/03/25 12:16:08;;;;;;;15.18;8.00;;;;;;;;;;5059837;28;37835;-78
2021/03/25 12:18:37;;;;;;;14.50;6.80;;;;;;;;;;5056589;28;37718;-78
2021/03/25 12:21:06;;;;;;;16.70;7.93;;;;;;;;;;5054855;28;39586;-79
2021/03/25 12:23:34;;;;;;;13.90;7.80;;;;;;;;;;5062031;28;35881;-78
2021/03/25 12:26:02;;;;;;;13.75;6.90;;;;;;;;;;5064559;28;38639;-78
2021/03/25 12:28:28;;;;;;;11.07;6.68;;;;;;;;;;5054458;28;47471;-79
2021/03/25 12:30:55;;;;;;;14.48;7.00;;;;;;;;;;5052926;28;37966;-78
2021/03/25 12:33:22;;;;;;;16.00;5.97;;;;;;;;;;5060090;28;38183;-78
2021/03/25 12:35:49;;;;;;;10.75;5.20;;;;;;;;;;5057106;28;39250;-79
2021/03/25 12:38:15;;;;;;;14.35;5.15;;;;;;;;;;5060015;28;37471;-79
2021/03/25 12:40:42;;;;;;;11.45;4.90;;;;;;;;;;5068901;28;38745;-79
2021/03/25 12:43:10;;;;;;;14.35;5.35;;;;;;;;;;5057772;27;36848;-79
2021/03/25 12:45:39;;;;;;;12.20;4.25;;;;;;;;;;5058783;28;38971;-80
2021/03/25 12:48:06;;;;;;;13.20;4.03;;;;;;;;;;5050904;28;39210;-79
2021/03/25 12:50:32;;;;;;;10.73;3.60;;;;;;;;;;5068043;28;37235;-79
2021/03/25 12:53:01;;;;;;;9.32;3.60;;;;;;;;;;5048374;28;37081;-79
2021/03/25 12:55:28;;;;;;;11.77;3.20;;;;;;;;;;5056833;28;48960;-79
2021/03/25 12:57:56;;;;;;;11.18;3.13;;;;;;;;;;5054736;28;38371;-79
2021/03/25 13:00:30;;;;;;;6.43;2.33;;;;;;;;;;5048279;28;39574;-79
2021/03/25 13:03:04;;;;;;;7.82;2.30;;;;;;;;;;5067492;28;37519;-78
2021/03/25 13:05:30;;;;;;;9.93;1.77;;;;;;;;;;5043484;28;50057;-79
2021/03/25 13:07:59;;;;;;;7.82;2.20;;;;;;;;;;5061285;27;39150;-80
2021/03/25 13:10:37;;;;;;;6.55;2.00;;;;;;;;;;5044017;28;40674;-78
2021/03/25 13:13:06;;;;;;;7.80;1.88;;;;;;;;;;5033292;28;37611;-80
2021/03/25 13:15:33;;;;;;;9.10;1.60;;;;;;;;;;5074145;28;38803;-79
2021/03/25 13:18:00;;;;;;;6.22;2.00;;;;;;;;;;5052481;28;39092;-79
2021/03/25 13:20:29;;;;;;;6.43;1.70;;;;;;;;;;5056494;28;40152;-79
2021/03/25 13:22:56;;;;;;;6.80;1.80;;;;;;;;;;5057294;28;35948;-80
2021/03/25 13:25:28;;;;;;;4.38;1.75;;;;;;;;;;5055068;28;39721;-79
2021/03/25 13:27:54;;;;;;;5.03;1.52;;;;;;;;;;5069285;28;37777;-78
2021/03/25 13:30:21;;;;;;;7.20;1.85;;;;;;;;;;5069762;28;39985;-77
2021/03/25 13:32:48;;;;;;;7.97;1.63;;;;;;;;;;5067085;28;35374;-77
2021/03/25 13:35:15;;;;;;;6.10;1.92;;;;;;;;;;5062731;28;39168;-79
2021/03/25 13:37:42;;;;;;;7.18;1.85;;;;;;;;;;5067802;28;38785;-79
2021/03/25 13:40:09;;;;;;;8.38;2.00;;;;;;;;;;5072125;28;39257;-79
2021/03/25 13:42:36;;;;;;;11.18;2.13;;;;;;;;;;5072296;28;36004;-79
2021/03/25 13:45:03;;;;;;;11.15;2.67;;;;;;;;;;5058954;28;39999;-80
2021/03/25 13:47:29;;;;;;;7.07;1.40;;;;;;;;;;5071684;28;40355;-80
2021/03/25 13:49:56;;;;;;;5.35;1.45;;;;;;;;;;5060277;28;38291;-79
2021/03/25 13:52:22;;;;;;;12.48;1.95;;;;;;;;;;5056364;28;37402;-80
2021/03/25 13:54:48;;;;;;;10.60;1.88;;;;;;;;;;5061005;28;38070;-79
2021/03/25 13:57:15;;;;;;;4.95;1.38;;;;;;;;;;5073522;28;38719;-79
2021/03/25 13:59:42;;;;;;;8.13;2.50;;;;;;;;;;5071203;28;38585;-80
2021/03/25 14:02:08;;;;;;;7.47;1.67;;;;;;;;;;5064776;28;36594;-79
2021/03/25 14:04:35;;;;;;;4.95;1.38;;;;;;;;;;5067813;28;40444;-79
2021/03/25 14:07:01;;;;;;;5.07;1.35;;;;;;;;;;5067651;28;39561;-81
2021/03/25 14:09:27;;;;;;;11.35;2.60;;;;;;;;;;5057802;28;49190;-80
2021/03/25 14:11:54;;;;;;;8.88;2.20;;;;;;;;;;5058992;28;37666;-80
2021/03/25 14:14:20;;;;;;;6.55;2.00;;;;;;;;;;5073924;28;38869;-80
2021/03/25 14:16:47;;;;;;;8.40;2.05;;;;;;;;;;5063050;28;37752;-81
2021/03/25 14:19:14;;;;;;;7.85;2.13;;;;;;;;;;5058373;28;37551;-80
2021/03/25 14:21:40;;;;;;;4.70;1.77;;;;;;;;;;5092151;28;37939;-80
2021/03/25 14:24:19;;;;;;;8.05;2.00;;;;;;;;;;5059357;28;39414;-80
2021/03/25 14:26:45;;;;;;;7.97;2.00;;;;;;;;;;5053035;28;38303;-80
2021/03/25 14:29:12;;;;;;;7.20;1.80;;;;;;;;;;5061318;27;39773;-78
2021/03/25 14:31:41;;;;;;;5.78;1.70;;;;;;;;;;5062464;28;35840;-78
2021/03/25 14:34:07;;;;;;;7.38;2.15;;;;;;;;;;5064889;28;38089;-79
2021/03/25 14:36:34;;;;;;;8.80;2.13;;;;;;;;;;5057946;28;37499;-79
2021/03/25 14:39:00;;;;;;;4.78;1.40;;;;;;;;;;5064775;28;38017;-79